Time;durP1;ratioP1;P1;durP2;ratioP2;P2;SDS_P1;SDS_P2;PMS_P1;PMS_P2;Temp;Humidity;BMP_temperature;BMP_pressure;BME280_temperature;BME280_humidity;BME280_pressure;Samples;Min_cycle;Max_cycle;Signal;HPM_P1;HPM_P2
2022/01/27 00:00:38;;;;;;;59.63;29.48;;;7.10;99.90;;;;;;4803300;29;20119;-80
2022/01/27 00:03:18;;;;;;;50.17;26.98;;;5.90;99.90;;;;;;4806913;29;20042;-81
2022/01/27 00:05:49;;;;;;;66.60;28.42;;;5.80;99.90;;;;;;4799731;29;20489;-81
2022/01/27 00:08:20;;;;;;;57.08;29.42;;;6.80;99.90;;;;;;4803749;29;20062;-80
2022/01/27 00:10:56;;;;;;;68.30;30.65;;;6.60;99.90;;;;;;4802679;29;20057;-80
2022/01/27 00:13:29;;;;;;;63.33;30.52;;;4.30;99.90;;;;;;4803566;29;20203;-80
2022/01/27 00:18:43;;;;;;;58.58;30.10;;;5.70;99.90;;;;;;4803178;29;20074;-80
2022/01/27 00:21:09;;;;;;;63.40;32.15;;;5.70;99.90;;;;;;4795378;29;20057;-80
2022/01/27 00:23:35;;;;;;;62.75;30.63;;;5.80;99.90;;;;;;4802293;29;20042;-80
2022/01/27 00:26:02;;;;;;;63.95;31.08;;;5.60;99.90;;;;;;4804034;29;20073;-80
2022/01/27 00:28:28;;;;;;;61.97;31.85;;;7.70;99.90;;;;;;4803882;29;20065;-80
2022/01/27 00:30:54;;;;;;;67.85;30.88;;;7.60;99.90;;;;;;4802279;29;20054;-81
2022/01/27 00:33:20;;;;;;;63.72;32.55;;;7.70;99.90;;;;;;4803505;29;20393;-81
2022/01/27 00:35:46;;;;;;;69.53;30.75;;;6.70;99.90;;;;;;4783109;29;20059;-80
2022/01/27 00:38:11;;;;;;;63.42;31.13;;;5.70;99.90;;;;;;4783642;29;20058;-80
2022/01/27 00:40:37;;;;;;;63.15;31.33;;;5.70;99.90;;;;;;4803784;29;20078;-81
2022/01/27 00:43:03;;;;;;;62.10;30.80;;;7.30;99.90;;;;;;4802619;29;20193;-81
2022/01/27 00:45:30;;;;;;;62.17;31.90;;;3.50;99.90;;;;;;4802683;29;20074;-80
2022/01/27 00:47:56;;;;;;;64.72;33.20;;;5.80;99.90;;;;;;4802950;29;20054;-81
2022/01/27 00:50:22;;;;;;;77.97;33.63;;;5.80;99.90;;;;;;4802967;29;20089;-81
2022/01/27 00:52:52;;;;;;;67.90;33.95;;;5.90;99.90;;;;;;4799405;29;20074;-81
2022/01/27 00:55:18;;;;;;;73.63;32.47;;;5.70;99.90;;;;;;4796347;29;20047;-81
2022/01/27 01:00:23;;;;;;;63.78;33.17;;;6.20;99.90;;;;;;4790286;29;20493;-81
2022/01/27 01:05:55;;;;;;;81.82;35.83;;;;;;;;;;4803560;29;20086;-81
2022/01/27 01:32:38;;;;;;;67.13;29.35;;;5.90;99.90;;;;;;4802735;29;20186;-80
2022/01/27 01:35:06;;;;;;;59.30;30.05;;;6.00;99.90;;;;;;4802180;29;20131;-80
2022/01/27 01:37:37;;;;;;;65.65;31.05;;;5.80;99.90;;;;;;4816192;29;20062;-80
2022/01/27 01:40:05;;;;;;;72.70;30.60;;;7.50;99.90;;;;;;4800065;29;20062;-80
2022/01/27 01:42:31;;;;;;;61.72;31.40;;;5.80;99.90;;;;;;4804202;29;20476;-80
2022/01/27 01:45:05;;;;;;;65.40;33.10;;;6.00;99.90;;;;;;4805750;29;20058;-80
2022/01/27 01:47:30;;;;;;;56.53;28.45;;;6.40;99.90;;;;;;4805124;29;20047;-82
2022/01/27 01:49:56;;;;;;;55.72;28.63;;;7.90;99.90;;;;;;4804002;29;20046;-81
2022/01/27 01:52:22;;;;;;;56.33;27.13;;;6.00;99.90;;;;;;4807716;29;20057;-81
2022/01/27 01:54:48;;;;;;;59.75;29.42;;;6.80;99.90;;;;;;4804655;29;21330;-81
2022/01/27 01:57:14;;;;;;;60.50;28.70;;;5.70;99.90;;;;;;4807365;29;20047;-81
2022/01/27 01:59:39;;;;;;;60.33;29.50;;;5.60;99.90;;;;;;4805453;29;20123;-75
2022/01/27 02:02:05;;;;;;;57.83;29.10;;;7.30;99.90;;;;;;4805787;29;20069;-75
2022/01/27 02:04:31;;;;;;;61.50;30.27;;;7.70;99.90;;;;;;4806481;29;20054;-74
2022/01/27 02:07:01;;;;;;;64.75;30.95;;;5.60;99.90;;;;;;4803420;29;20407;-75
2022/01/27 02:20:12;;;;;;;60.70;32.92;;;6.70;99.90;;;;;;4798058;29;20754;-76
2022/01/27 02:22:39;;;;;;;64.75;31.67;;;5.60;99.90;;;;;;4806120;29;20496;-77
2022/01/27 02:25:06;;;;;;;62.13;34.70;;;6.40;99.90;;;;;;4798307;29;20122;-76
2022/01/27 02:27:32;;;;;;;69.53;31.42;;;6.00;99.90;;;;;;4802983;29;20055;-76
2022/01/27 02:29:58;;;;;;;72.05;32.42;;;5.70;99.90;;;;;;4804338;29;20065;-79
2022/01/27 02:32:24;;;;;;;67.40;34.53;;;7.50;99.90;;;;;;4797617;29;20063;-80
2022/01/27 02:34:50;;;;;;;71.50;33.38;;;5.40;99.90;;;;;;4804922;29;20493;-79
2022/01/27 02:37:16;;;;;;;60.30;32.55;;;;;;;;;;4805452;29;20050;-80
2022/01/27 02:39:42;;;;;;;79.38;34.13;;;5.70;99.90;;;;;;4802208;29;20063;-80
2022/01/27 02:42:30;;;;;;;66.15;32.95;;;5.00;99.90;;;;;;4812223;29;20043;-79
2022/01/27 02:45:08;;;;;;;68.15;30.98;;;5.70;99.90;;;;;;4804737;29;20229;-79
2022/01/27 02:47:35;;;;;;;69.32;35.53;;;5.70;99.90;;;;;;4805209;29;20050;-80
2022/01/27 02:50:01;;;;;;;62.53;34.42;;;5.30;99.90;;;;;;4806145;29;20054;-81
2022/01/27 02:52:26;;;;;;;75.75;33.47;;;7.50;99.90;;;;;;4797395;29;20059;-81
2022/01/27 02:54:52;;;;;;;88.05;44.53;;;7.20;99.90;;;;;;4775447;29;20504;-82
2022/01/27 02:57:19;;;;;;;60.08;28.92;;;6.00;99.90;;;;;;4807049;29;20350;-82
2022/01/27 02:59:45;;;;;;;66.40;36.50;;;8.30;99.90;;;;;;4805017;29;20106;-82
2022/01/27 03:02:12;;;;;;;66.78;33.28;;;;;;;;;;4804539;29;20790;-83
2022/01/27 03:04:37;;;;;;;73.90;35.90;;;5.90;99.90;;;;;;4803471;29;20610;-83
2022/01/27 03:07:05;;;;;;;60.70;31.05;;;7.80;99.90;;;;;;4818887;29;20054;-82
2022/01/27 03:09:33;;;;;;;67.88;35.97;;;5.70;99.90;;;;;;4808710;29;20138;-82
2022/01/27 03:12:01;;;;;;;58.83;29.40;;;5.90;99.90;;;;;;4802626;29;20050;-82
2022/01/27 03:14:29;;;;;;;68.50;34.42;;;6.40;99.90;;;;;;4804815;29;20047;-82
2022/01/27 03:16:57;;;;;;;53.92;28.85;;;5.90;99.90;;;;;;4804121;29;20055;-85
2022/01/27 03:19:23;;;;;;;69.50;35.97;;;6.00;99.90;;;;;;4801486;29;20051;-83
2022/01/27 03:21:49;;;;;;;76.32;35.28;;;5.90;99.90;;;;;;4798604;29;20505;-83
2022/01/27 03:24:16;;;;;;;69.32;34.00;;;4.80;99.90;;;;;;4803987;29;20068;-82
2022/01/27 03:26:42;;;;;;;73.60;32.45;;;4.80;99.90;;;;;;4804783;29;20255;-82
2022/01/27 03:29:08;;;;;;;67.43;33.63;;;6.60;99.90;;;;;;4804258;29;20094;-82
2022/01/27 03:31:34;;;;;;;74.38;35.05;;;6.20;99.90;;;;;;4792214;29;20103;-82
2022/01/27 03:34:00;;;;;;;60.42;33.00;;;7.20;99.90;;;;;;4802517;29;20444;-82
2022/01/27 03:36:25;;;;;;;79.75;34.10;;;7.60;99.90;;;;;;4777853;29;20050;-81
2022/01/27 03:38:51;;;;;;;65.95;34.30;;;6.50;99.90;;;;;;4804282;29;20120;-81
2022/01/27 03:41:20;;;;;;;74.72;34.60;;;5.60;99.90;;;;;;4803516;29;20068;-82
2022/01/27 03:43:48;;;;;;;72.70;36.15;;;5.50;99.90;;;;;;4804982;29;20055;-83
2022/01/27 03:46:14;;;;;;;73.10;35.97;;;5.60;99.90;;;;;;4803568;29;20412;-82
2022/01/27 03:48:39;;;;;;;72.20;35.72;;;7.20;99.90;;;;;;4804569;29;20042;-82
2022/01/27 03:51:05;;;;;;;77.55;38.63;;;5.40;99.90;;;;;;4803632;29;20107;-82
2022/01/27 03:53:31;;;;;;;71.57;35.05;;;7.30;99.90;;;;;;4812330;29;20454;-83
2022/01/27 03:55:57;;;;;;;72.90;33.65;;;5.90;99.90;;;;;;4799152;29;20075;-86
2022/01/27 03:58:23;;;;;;;74.35;35.20;;;5.60;99.90;;;;;;4803726;29;20161;-82
2022/01/27 04:00:49;;;;;;;82.65;32.72;;;;;;;;;;4794264;29;20131;-83
2022/01/27 04:03:17;;;;;;;75.32;34.88;;;5.10;99.90;;;;;;4815748;29;20046;-83
2022/01/27 04:05:54;;;;;;;70.70;33.65;;;6.60;99.90;;;;;;4804208;29;20446;-84
2022/01/27 04:08:21;;;;;;;74.55;33.40;;;5.50;99.90;;;;;;4802419;29;20058;-83
2022/01/27 04:10:50;;;;;;;79.63;34.88;;;8.20;99.90;;;;;;4797817;29;20438;-83
2022/01/27 04:13:16;;;;;;;75.65;32.45;;;9.00;99.90;;;;;;4792895;29;20098;-84
2022/01/27 04:15:43;;;;;;;65.38;33.67;;;6.20;99.90;;;;;;4803334;29;20309;-84
2022/01/27 04:18:10;;;;;;;77.40;32.83;;;7.30;99.90;;;;;;4808540;29;20420;-82
2022/01/27 04:20:37;;;;;;;76.72;33.53;;;8.50;99.90;;;;;;4804000;29;20055;-82
2022/01/27 04:23:02;;;;;;;75.20;32.47;;;4.60;99.90;;;;;;4802951;29;20050;-83
2022/01/27 04:25:28;;;;;;;76.97;34.00;;;7.40;99.90;;;;;;4798999;29;20067;-84
2022/01/27 04:27:59;;;;;;;74.70;35.88;;;8.20;99.90;;;;;;4784100;29;20055;-84
2022/01/27 04:30:26;;;;;;;69.13;32.25;;;7.50;99.90;;;;;;4797606;29;20057;-82
2022/01/27 04:33:02;;;;;;;72.40;31.27;;;5.80;99.90;;;;;;4801144;29;20070;-85
2022/01/27 04:35:33;;;;;;;64.22;29.90;;;6.00;99.90;;;;;;4805602;29;20330;-83
2022/01/27 04:40:45;;;;;;;74.30;31.75;;;6.10;99.90;;;;;;4805269;29;20059;-84
2022/01/27 04:45:48;;;;;;;63.53;32.55;;;5.80;99.90;;;;;;4791485;29;20059;-83
2022/01/27 04:48:17;;;;;;;76.20;31.30;;;5.80;99.90;;;;;;4803215;29;20055;-83
2022/01/27 04:50:44;;;;;;;71.72;30.17;;;7.10;99.90;;;;;;4803841;29;20058;-86
2022/01/27 04:53:17;;;;;;;62.90;31.23;;;4.70;99.90;;;;;;4787757;29;20497;-85
2022/01/27 04:55:43;;;;;;;77.00;32.92;;;6.00;99.90;;;;;;4806316;29;20086;-85
2022/01/27 04:58:16;;;;;;;73.32;32.28;;;5.20;99.90;;;;;;4797809;29;20097;-84
2022/01/27 05:00:42;;;;;;;74.55;31.58;;;6.10;99.90;;;;;;4802896;29;20108;-83
2022/01/27 05:03:17;;;;;;;71.93;31.60;;;6.00;99.90;;;;;;4802794;29;20410;-82
2022/01/27 05:05:43;;;;;;;69.00;32.67;;;;;;;;;;4803825;29;20047;-82
2022/01/27 05:08:16;;;;;;;77.10;30.92;;;;;;;;;;4802694;29;20433;-82
2022/01/27 05:10:43;;;;;;;76.55;34.28;;;6.30;99.90;;;;;;4800899;29;20050;-82
2022/01/27 05:13:13;;;;;;;72.93;32.08;;;6.60;99.90;;;;;;4795982;29;20055;-84
2022/01/27 05:15:45;;;;;;;69.43;31.40;;;7.00;99.90;;;;;;4808377;29;20158;-83
2022/01/27 05:18:11;;;;;;;67.85;32.70;;;6.00;99.90;;;;;;4790664;29;20092;-83
2022/01/27 05:20:37;;;;;;;75.00;31.38;;;7.40;99.90;;;;;;4794202;29;20359;-83
2022/01/27 05:23:03;;;;;;;76.32;31.80;;;6.10;99.90;;;;;;4805826;29;20051;-82
2022/01/27 05:25:29;;;;;;;66.32;27.80;;;7.00;99.90;;;;;;4798835;29;20054;-83
2022/01/27 05:27:54;;;;;;;82.53;37.28;;;6.10;99.90;;;;;;4779205;29;20126;-81
2022/01/27 05:30:20;;;;;;;71.88;31.38;;;5.80;99.90;;;;;;4803124;29;20050;-81
2022/01/27 05:32:46;;;;;;;63.28;28.77;;;6.20;99.90;;;;;;4806410;29;20058;-81
2022/01/27 05:35:12;;;;;;;71.78;32.22;;;6.00;99.90;;;;;;4806061;29;20051;-80
2022/01/27 05:37:37;;;;;;;84.22;32.97;;;6.10;99.90;;;;;;4806811;29;20051;-81
2022/01/27 05:40:04;;;;;;;87.20;33.80;;;5.60;99.90;;;;;;4806619;29;20103;-81
2022/01/27 05:42:30;;;;;;;94.90;33.08;;;6.50;1.00;;;;;;4809933;29;20141;-83
2022/01/27 05:44:55;;;;;;;76.60;31.25;;;6.80;1.00;;;;;;4780950;29;20129;-79
2022/01/27 05:47:21;;;;;;;87.45;37.08;;;5.30;99.90;;;;;;4806219;29;20055;-81
2022/01/27 05:49:47;;;;;;;79.13;31.48;;;6.80;99.90;;;;;;4806093;29;20581;-79
2022/01/27 05:52:12;;;;;;;92.85;34.00;;;6.30;99.90;;;;;;4805615;29;20062;-83
2022/01/27 05:54:38;;;;;;;89.97;34.70;;;5.90;1.00;;;;;;4810908;29;20062;-81
2022/01/27 05:57:04;;;;;;;102.03;36.22;;;7.00;1.00;;;;;;4793924;29;20463;-80
2022/01/27 05:59:30;;;;;;;109.80;38.20;;;6.80;1.00;;;;;;4809337;29;20477;-80
2022/01/27 06:01:56;;;;;;;110.50;40.65;;;;;;;;;;4816077;29;20050;-82
2022/01/27 06:04:22;;;;;;;103.47;36.05;;;;;;;;;;4823779;29;20046;-80
2022/01/27 06:06:47;;;;;;;111.50;40.05;;;5.50;1.00;;;;;;4786415;29;20129;-80
2022/01/27 06:09:13;;;;;;;113.65;39.80;;;8.70;99.90;;;;;;4806068;29;20192;-84
2022/01/27 06:11:39;;;;;;;115.10;38.03;;;6.40;1.00;;;;;;4805005;29;20098;-81
2022/01/27 06:14:05;;;;;;;123.07;39.90;;;;;;;;;;4809525;29;20051;-81
2022/01/27 06:16:30;;;;;;;119.70;39.60;;;6.40;99.90;;;;;;4810135;29;20050;-81
2022/01/27 06:18:56;;;;;;;116.18;38.92;;;6.60;99.90;;;;;;4803071;29;20137;-80
2022/01/27 06:21:22;;;;;;;113.13;44.60;;;6.90;99.90;;;;;;4778639;29;20054;-81
2022/01/27 06:23:48;;;;;;;114.75;37.80;;;6.40;99.90;;;;;;4813390;29;20194;-81
2022/01/27 06:26:14;;;;;;;125.68;41.38;;;9.30;96.20;;;;;;4806375;29;20046;-80
2022/01/27 06:28:40;;;;;;;110.90;40.33;;;8.10;96.10;;;;;;4808443;29;20405;-82
2022/01/27 06:31:06;;;;;;;118.35;39.97;;;;;;;;;;4805526;29;20508;-82
2022/01/27 06:33:32;;;;;;;112.55;38.63;;;;;;;;;;4787361;29;20162;-81
2022/01/27 06:35:58;;;;;;;117.68;40.10;;;6.90;18.60;;;;;;4788198;29;20051;-80
2022/01/27 06:38:24;;;;;;;120.88;41.20;;;6.70;39.90;;;;;;4788429;29;20062;-80
2022/01/27 06:40:50;;;;;;;112.75;40.47;;;;;;;;;;4811947;29;20095;-78
2022/01/27 06:43:16;;;;;;;99.20;34.47;;;7.60;99.90;;;;;;4794090;29;20522;-79
2022/01/27 06:45:42;;;;;;;103.30;38.47;;;7.30;99.90;;;;;;4774360;29;20130;-79
2022/01/27 06:48:07;;;;;;;106.15;36.85;;;7.00;99.90;;;;;;4807875;29;20153;-80
2022/01/27 06:50:36;;;;;;;94.10;36.22;;;6.80;99.90;;;;;;4822016;29;20077;-80
2022/01/27 06:53:02;;;;;;;103.18;36.92;;;8.10;99.90;;;;;;4794259;29;20724;-80
2022/01/27 06:55:28;;;;;;;100.28;37.50;;;6.20;99.90;;;;;;4805857;29;20054;-79
2022/01/27 06:57:53;;;;;;;94.13;38.30;;;7.00;99.90;;;;;;4806158;29;20414;-81
2022/01/27 07:00:20;;;;;;;99.72;34.85;;;;;;;;;;4789476;29;20090;-81
2022/01/27 07:02:45;;;;;;;87.45;40.30;;;6.90;99.90;;;;;;4808911;29;20122;-79
2022/01/27 07:05:16;;;;;;;88.45;33.42;;;7.20;99.90;;;;;;4818045;29;20130;-80
2022/01/27 07:07:42;;;;;;;66.88;29.60;;;8.80;99.90;;;;;;4814164;29;20120;-81
2022/01/27 07:10:08;;;;;;;80.18;31.65;;;7.30;99.90;;;;;;4805789;29;20474;-80
2022/01/27 07:12:34;;;;;;;93.70;32.53;;;9.40;99.90;;;;;;4808624;29;20526;-80
2022/01/27 07:14:59;;;;;;;77.15;31.35;;;10.20;99.90;;;;;;4814093;29;20146;-80
2022/01/27 07:17:25;;;;;;;86.40;32.60;;;8.90;99.90;;;;;;4789207;29;20055;-80
2022/01/27 07:19:51;;;;;;;93.75;35.42;;;8.50;99.90;;;;;;4805854;29;20475;-79
2022/01/27 07:22:17;;;;;;;80.05;30.80;;;;;;;;;;4800612;29;20050;-79
2022/01/27 07:24:43;;;;;;;80.40;32.80;;;;;;;;;;4804834;29;20098;-79
2022/01/27 07:27:09;;;;;;;81.47;29.35;;;9.10;99.90;;;;;;4805682;29;20584;-79
2022/01/27 07:29:35;;;;;;;70.53;29.98;;;9.50;99.90;;;;;;4806111;29;20067;-80
2022/01/27 07:32:01;;;;;;;87.20;31.30;;;;;;;;;;4823240;29;20054;-79
2022/01/27 07:34:27;;;;;;;78.63;30.00;;;7.60;99.90;;;;;;4819809;29;20058;-80
2022/01/27 07:36:57;;;;;;;71.25;30.80;;;9.70;99.90;;;;;;4793911;29;20051;-80
2022/01/27 07:39:22;;;;;;;74.97;28.52;;;8.80;99.90;;;;;;4804714;29;20059;-80
2022/01/27 07:41:49;;;;;;;78.82;28.83;;;9.80;99.90;;;;;;4820319;29;20049;-79
2022/01/27 07:44:15;;;;;;;72.47;27.08;;;8.60;99.90;;;;;;4807479;29;20426;-79
2022/01/27 07:46:40;;;;;;;84.80;28.35;;;7.80;99.90;;;;;;4822934;29;20046;-80
2022/01/27 07:49:06;;;;;;;83.30;29.13;;;9.30;99.90;;;;;;4805475;29;20065;-80
2022/01/27 07:51:32;;;;;;;71.53;26.35;;;8.20;99.90;;;;;;4820832;29;20138;-80
2022/01/27 07:53:58;;;;;;;81.55;28.95;;;10.50;99.90;;;;;;4823084;29;20125;-79
2022/01/27 07:56:23;;;;;;;91.50;30.30;;;8.40;99.90;;;;;;4821652;29;20425;-80
2022/01/27 07:58:49;;;;;;;87.22;29.73;;;8.80;99.90;;;;;;4805868;29;20059;-80
2022/01/27 08:01:15;;;;;;;88.32;29.27;;;9.30;99.90;;;;;;4804636;29;20062;-80
2022/01/27 08:03:40;;;;;;;96.78;31.42;;;8.60;99.90;;;;;;4804279;29;20073;-81
2022/01/27 08:06:07;;;;;;;92.28;30.52;;;11.40;99.90;;;;;;4805240;29;20099;-81
2022/01/27 08:08:34;;;;;;;102.13;33.92;;;9.30;99.90;;;;;;4812984;29;20043;-80
2022/01/27 08:11:00;;;;;;;93.22;32.90;;;;;;;;;;4799419;29;20264;-80
2022/01/27 08:13:26;;;;;;;102.78;32.95;;;8.60;99.90;;;;;;4803459;29;20038;-83
2022/01/27 08:15:53;;;;;;;102.88;33.97;;;8.70;99.90;;;;;;4798273;29;20402;-79
2022/01/27 08:18:20;;;;;;;111.95;35.13;;;8.10;99.90;;;;;;4790797;29;20043;-81
2022/01/27 08:20:47;;;;;;;97.97;35.08;;;9.60;99.90;;;;;;4786114;30;20065;-81
2022/01/27 08:23:14;;;;;;;108.68;35.03;;;10.90;99.90;;;;;;4785960;30;20090;-81
2022/01/27 08:25:41;;;;;;;114.13;33.67;;;9.70;99.90;;;;;;4796945;29;20043;-80
2022/01/27 08:28:07;;;;;;;104.82;34.28;;;10.20;99.90;;;;;;4822573;29;20046;-81
2022/01/27 08:30:41;;;;;;;100.50;33.00;;;9.60;99.90;;;;;;4821595;29;20050;-81
2022/01/27 08:33:14;;;;;;;118.60;32.63;;;;;;;;;;4820733;29;20055;-81
2022/01/27 08:35:40;;;;;;;100.70;30.23;;;;;;;;;;4813641;29;20043;-81
2022/01/27 08:38:06;;;;;;;79.75;26.75;;;9.60;99.90;;;;;;4803607;29;20134;-81
2022/01/27 08:40:32;;;;;;;100.22;29.58;;;9.90;99.90;;;;;;4803877;29;20509;-82
2022/01/27 08:42:59;;;;;;;103.05;26.10;;;8.40;99.90;;;;;;4791415;29;20053;-81
2022/01/27 08:45:25;;;;;;;92.10;28.63;;;9.00;99.90;;;;;;4820137;29;20055;-81
2022/01/27 08:47:54;;;;;;;86.35;26.25;;;8.60;99.90;;;;;;4804230;29;20047;-81
2022/01/27 08:50:22;;;;;;;84.55;26.58;;;8.80;99.90;;;;;;4809226;29;20259;-81
2022/01/27 08:52:47;;;;;;;78.70;25.55;;;9.30;99.90;;;;;;4819283;29;20121;-82
2022/01/27 08:55:14;;;;;;;81.18;23.80;;;10.20;99.90;;;;;;4822281;29;20134;-81
2022/01/27 08:57:40;;;;;;;81.15;24.48;;;6.60;99.90;;;;;;4819638;29;20050;-81
2022/01/27 09:00:11;;;;;;;74.10;22.88;;;10.10;99.90;;;;;;4804480;29;20065;-81
2022/01/27 09:02:37;;;;;;;74.57;21.90;;;9.70;99.90;;;;;;4769650;30;20558;-82
2022/01/27 09:05:04;;;;;;;78.72;22.67;;;10.20;99.90;;;;;;4785726;30;20058;-81
2022/01/27 09:07:30;;;;;;;73.97;23.02;;;9.40;99.90;;;;;;4806424;29;20046;-84
2022/01/27 09:09:56;;;;;;;67.50;19.17;;;9.80;99.90;;;;;;4804092;29;20062;-82
2022/01/27 09:12:22;;;;;;;67.05;19.45;;;12.70;99.90;;;;;;4821844;29;20137;-82
2022/01/27 09:14:47;;;;;;;75.25;19.55;;;8.80;99.90;;;;;;4819055;29;20404;-83
2022/01/27 09:17:15;;;;;;;55.13;17.92;;;11.80;99.90;;;;;;4812041;29;20125;-81
2022/01/27 09:19:43;;;;;;;47.50;15.63;;;9.40;99.90;;;;;;4821438;29;20046;-81
2022/01/27 09:22:13;;;;;;;;;;;10.10;99.90;;;;;;4822542;29;20469;-81
2022/01/27 09:24:50;;;;;;;44.75;15.07;;;8.00;99.90;;;;;;4819741;29;19932;-81
2022/01/27 09:27:17;;;;;;;54.70;16.30;;;;;;;;;;4804257;29;20054;-79
2022/01/27 09:29:43;;;;;;;53.65;15.13;;;10.90;99.90;;;;;;4818988;29;20062;-81
2022/01/27 09:32:09;;;;;;;65.70;16.98;;;11.50;99.90;;;;;;4822132;29;20137;-80
2022/01/27 09:34:36;;;;;;;52.55;16.40;;;9.30;99.90;;;;;;4821182;29;20416;-81
2022/01/27 09:37:02;;;;;;;61.03;16.00;;;11.80;99.90;;;;;;4777728;29;20070;-81
2022/01/27 09:39:33;;;;;;;53.63;15.48;;;9.30;99.90;;;;;;4813350;29;20480;-82
2022/01/27 09:42:00;;;;;;;47.63;14.23;;;12.70;99.90;;;;;;4805718;29;20054;-81
2022/01/27 09:44:30;;;;;;;54.08;14.10;;;11.00;99.90;;;;;;4821247;29;20528;-81
2022/01/27 09:47:01;;;;;;;44.30;13.10;;;10.30;99.90;;;;;;4812641;29;20484;-80
2022/01/27 09:49:41;;;;;;;50.38;14.07;;;10.00;99.90;;;;;;4813553;29;20089;-80
2022/01/27 09:52:07;;;;;;;48.03;14.00;;;9.40;99.90;;;;;;4803632;29;20066;-80
2022/01/27 09:54:34;;;;;;;43.25;12.32;;;9.90;99.90;;;;;;4802875;29;20149;-83
2022/01/27 09:57:00;;;;;;;53.50;19.63;;;;;;;;;;4797807;29;20051;-79
2022/01/27 09:59:26;;;;;;;48.63;13.90;;;10.30;99.90;;;;;;4815455;29;20085;-81
2022/01/27 10:02:04;;;;;;;44.60;12.25;;;9.30;99.90;;;;;;4799471;29;20082;-82
2022/01/27 10:04:51;;;;;;;41.67;13.07;;;10.00;99.90;;;;;;4797135;29;20474;-80
2022/01/27 10:07:27;;;;;;;54.97;13.23;;;9.60;99.90;;;;;;4816042;29;20046;-81
2022/01/27 10:10:00;;;;;;;56.50;12.32;;;10.80;99.90;;;;;;4791721;29;20090;-80
2022/01/27 10:12:29;;;;;;;40.65;13.00;;;10.00;99.90;;;;;;4796165;29;20050;-81
2022/01/27 10:15:06;;;;;;;53.60;11.80;;;10.40;99.90;;;;;;4794773;29;20061;-81
2022/01/27 10:17:37;;;;;;;43.67;12.23;;;9.70;99.90;;;;;;4815917;29;20055;-81
2022/01/27 10:20:13;;;;;;;46.00;11.98;;;11.00;99.90;;;;;;4806741;29;20154;-81
2022/01/27 10:22:38;;;;;;;51.20;12.45;;;10.20;99.90;;;;;;4814463;29;20050;-81
2022/01/27 10:25:09;;;;;;;43.58;11.63;;;10.80;99.90;;;;;;4808074;29;20055;-80
2022/01/27 10:32:50;;;;;;;36.45;11.02;;;10.90;99.90;;;;;;4810713;29;20059;-80
2022/01/27 10:35:21;;;;;;;41.25;10.15;;;9.90;99.90;;;;;;4811719;29;20051;-81
2022/01/27 10:38:02;;;;;;;44.97;10.13;;;11.20;99.90;;;;;;4805533;29;20051;-81
2022/01/27 10:40:40;;;;;;;32.15;9.90;;;10.00;99.90;;;;;;4807702;29;20510;-80
2022/01/27 10:43:06;;;;;;;47.65;10.07;;;11.10;99.90;;;;;;4814243;29;20059;-81
2022/01/27 10:45:32;;;;;;;39.90;9.82;;;12.40;99.90;;;;;;4805678;29;20186;-80
2022/01/27 10:48:35;;;;;;;42.75;9.73;;;11.10;99.90;;;;;;4789743;29;20107;-81
2022/01/27 10:51:09;;;;;;;40.90;10.27;;;9.90;99.90;;;;;;4746975;30;20125;-81
2022/01/27 10:53:59;;;;;;;39.38;10.25;;;10.50;99.90;;;;;;4781719;30;20421;-81
2022/01/27 10:56:31;;;;;;;40.60;10.00;;;12.60;99.90;;;;;;4810235;29;20441;-81
2022/01/27 10:58:58;;;;;;;39.75;9.20;;;12.70;99.90;;;;;;4801549;29;20161;-82
2022/01/27 11:01:29;;;;;;;45.92;9.88;;;10.20;99.90;;;;;;4806138;29;20082;-81
2022/01/27 11:03:57;;;;;;;32.25;8.88;;;11.20;99.90;;;;;;4805526;29;20058;-80
2022/01/27 11:06:25;;;;;;;40.78;9.57;;;10.40;99.90;;;;;;4821463;29;20559;-82
2022/01/27 11:08:54;;;;;;;43.22;9.73;;;10.40;99.90;;;;;;4800877;29;20050;-81
2022/01/27 11:11:26;;;;;;;41.63;10.13;;;10.10;99.90;;;;;;4802009;29;20065;-82
2022/01/27 11:13:53;;;;;;;37.95;9.10;;;10.50;99.90;;;;;;4812386;29;20450;-82
2022/01/27 11:16:24;;;;;;;43.78;11.10;;;10.70;99.90;;;;;;4822545;29;20078;-82
2022/01/27 11:18:53;;;;;;;42.83;8.93;;;10.90;99.90;;;;;;4821035;29;20069;-83
2022/01/27 11:21:30;;;;;;;43.70;9.20;;;11.20;99.90;;;;;;4805073;29;20443;-81
2022/01/27 11:24:14;;;;;;;35.78;9.70;;;10.40;99.90;;;;;;4817857;29;20042;-82
2022/01/27 11:26:43;;;;;;;39.50;8.25;;;12.30;99.90;;;;;;4798865;29;20066;-82
2022/01/27 11:29:10;;;;;;;30.33;7.25;;;10.10;99.90;;;;;;4786322;30;20071;-81
2022/01/27 11:31:45;;;;;;;30.65;7.18;;;10.60;99.90;;;;;;4796350;29;20063;-81
2022/01/27 11:34:11;;;;;;;42.17;7.80;;;10.40;99.90;;;;;;4809559;29;20408;-82
2022/01/27 11:36:38;;;;;;;28.83;7.10;;;12.30;99.90;;;;;;4821117;29;20046;-82
2022/01/27 11:39:10;;;;;;;35.50;6.68;;;10.90;99.90;;;;;;4819808;29;20051;-83
2022/01/27 11:41:44;;;;;;;34.08;6.68;;;11.20;99.90;;;;;;4811585;29;20062;-82
2022/01/27 11:44:26;;;;;;;39.50;6.88;;;10.80;99.90;;;;;;4805426;29;20127;-82
2022/01/27 11:47:13;;;;;;;34.45;6.68;;;10.60;99.90;;;;;;4817384;29;20373;-82
2022/01/27 11:49:54;;;;;;;39.00;6.18;;;10.00;99.90;;;;;;4780977;29;20070;-82
2022/01/27 11:52:27;;;;;;;36.30;6.57;;;10.00;99.90;;;;;;4789189;29;20499;-82
2022/01/27 11:55:17;;;;;;;34.40;7.15;;;11.20;99.90;;;;;;4802982;29;20054;-82
2022/01/27 11:57:45;;;;;;;33.78;5.95;;;10.00;99.90;;;;;;4817225;29;20050;-84
2022/01/27 12:00:18;;;;;;;48.67;7.30;;;10.00;99.90;;;;;;4806404;29;20349;-82
2022/01/27 12:02:56;;;;;;;37.00;6.97;;;9.80;99.90;;;;;;4822641;29;20050;-83
2022/01/27 12:05:22;;;;;;;38.53;6.80;;;10.80;99.90;;;;;;4821523;29;20050;-82
2022/01/27 12:08:13;;;;;;;29.65;5.35;;;10.60;99.90;;;;;;4810482;29;20094;-82
2022/01/27 12:11:02;;;;;;;36.50;5.75;;;10.10;99.90;;;;;;4817796;29;20057;-82
2022/01/27 12:13:31;;;;;;;44.03;5.93;;;10.30;99.90;;;;;;4823449;29;20417;-81
2022/01/27 12:19:09;;;;;;;33.95;6.45;;;10.90;99.90;;;;;;4821638;29;20097;-82
2022/01/27 12:21:37;;;;;;;34.67;5.40;;;10.10;99.90;;;;;;4823131;29;20115;-82
2022/01/27 12:24:25;;;;;;;34.95;5.93;;;11.30;99.90;;;;;;4821826;29;20137;-83
2022/01/27 12:27:01;;;;;;;32.70;5.43;;;11.00;99.90;;;;;;4808644;29;20046;-83
2022/01/27 12:29:33;;;;;;;38.95;6.22;;;10.60;99.90;;;;;;4788400;29;20370;-83
2022/01/27 12:32:06;;;;;;;31.45;5.43;;;10.80;99.90;;;;;;4799395;29;20081;-82
2022/01/27 12:34:33;;;;;;;37.38;5.80;;;10.80;99.90;;;;;;4820731;29;20090;-83
2022/01/27 12:37:03;;;;;;;32.58;5.70;;;10.30;99.90;;;;;;4820565;29;20137;-82
2022/01/27 12:39:43;;;;;;;36.00;5.43;;;11.60;99.90;;;;;;4822299;29;20137;-82
2022/01/27 12:42:15;;;;;;;43.78;6.40;;;9.80;99.90;;;;;;4805721;29;20051;-82
2022/01/27 12:44:57;;;;;;;35.05;5.60;;;10.10;99.90;;;;;;4807068;29;20054;-81
2022/01/27 12:47:24;;;;;;;30.05;5.25;;;10.60;99.90;;;;;;4821284;29;20105;-81
2022/01/27 12:50:09;;;;;;;42.63;6.60;;;10.80;99.90;;;;;;4819772;29;20093;-82
2022/01/27 12:52:42;;;;;;;42.13;6.20;;;9.80;99.90;;;;;;4770106;30;20058;-81
2022/01/27 12:55:09;;;;;;;31.77;6.10;;;9.90;99.90;;;;;;4804120;29;20395;-80
2022/01/27 12:57:34;;;;;;;29.35;4.75;;;9.60;99.90;;;;;;4820492;29;20054;-82
2022/01/27 13:00:03;;;;;;;36.70;5.72;;;9.80;99.90;;;;;;4821463;29;20073;-82
2022/01/27 13:02:29;;;;;;;41.13;5.65;;;10.80;99.90;;;;;;4803109;29;20055;-81
2022/01/27 13:04:57;;;;;;;32.25;4.45;;;9.40;99.90;;;;;;4791058;29;20408;-80
2022/01/27 13:07:25;;;;;;;40.38;6.30;;;10.50;99.90;;;;;;4804865;29;20054;-81
2022/01/27 13:10:07;;;;;;;30.27;4.97;;;10.90;99.90;;;;;;4804230;29;20039;-81
2022/01/27 13:12:41;;;;;;;36.28;5.65;;;9.60;99.90;;;;;;4802430;29;20218;-82
2022/01/27 13:15:14;;;;;;;44.03;6.55;;;10.70;99.90;;;;;;4820709;29;20061;-81
2022/01/27 13:17:47;;;;;;;38.58;5.60;;;10.40;99.90;;;;;;4818520;29;20173;-82
2022/01/27 13:20:32;;;;;;;36.20;5.35;;;10.30;99.90;;;;;;4821959;29;20058;-81
2022/01/27 13:23:28;;;;;;;28.52;4.88;;;10.40;99.90;;;;;;4819627;29;20126;-81
2022/01/27 13:26:02;;;;;;;37.72;5.45;;;10.60;99.90;;;;;;4804031;29;20046;-82
2022/01/27 13:28:34;;;;;;;34.47;5.38;;;12.10;99.90;;;;;;4795038;29;20053;-81
2022/01/27 13:31:04;;;;;;;35.92;5.18;;;10.10;99.90;;;;;;4803100;29;20058;-81
2022/01/27 13:33:36;;;;;;;27.75;4.22;;;9.50;99.90;;;;;;4821187;29;20141;-81
2022/01/27 13:36:01;;;;;;;32.00;4.80;;;12.60;99.90;;;;;;4803734;29;20429;-81
2022/01/27 13:38:37;;;;;;;28.42;4.90;;;11.80;99.90;;;;;;4806892;29;20082;-81
2022/01/27 13:41:19;;;;;;;26.80;4.90;;;9.80;99.90;;;;;;4791865;29;20073;-82
2022/01/27 13:44:17;;;;;;;33.85;4.43;;;9.50;99.90;;;;;;4824402;29;20046;-81
2022/01/27 13:46:54;;;;;;;35.22;4.78;;;10.30;99.90;;;;;;4804909;29;20145;-81